sensor_id;sensor_type;location;lat;lon;timestamp;P1;durP1;ratioP1;P2;durP2;ratioP2
11203;SDS011;5659;49.408;11.116;2023-10-19T00:01:20;41.80;;;31.07;;
11203;SDS011;5659;49.408;11.116;2023-10-19T00:03:50;41.43;;;30.40;;
11203;SDS011;5659;49.408;11.116;2023-10-19T00:06:18;40.83;;;30.20;;
11203;SDS011;5659;49.408;11.116;2023-10-19T00:08:44;44.67;;;31.20;;
11203;SDS011;5659;49.408;11.116;2023-10-19T00:11:10;39.40;;;29.33;;
11203;SDS011;5659;49.408;11.116;2023-10-19T00:13:46;46.17;;;31.50;;
11203;SDS011;5659;49.408;11.116;2023-10-19T00:16:15;49.63;;;31.80;;
11203;SDS011;5659;49.408;11.116;2023-10-19T00:18:48;40.57;;;30.60;;
11203;SDS011;5659;49.408;11.116;2023-10-19T00:21:14;48.30;;;32.87;;
11203;SDS011;5659;49.408;11.116;2023-10-19T00:23:56;47.47;;;31.73;;
11203;SDS011;5659;49.408;11.116;2023-10-19T00:26:23;42.87;;;31.70;;
11203;SDS011;5659;49.408;11.116;2023-10-19T00:28:54;44.93;;;32.37;;
11203;SDS011;5659;49.408;11.116;2023-10-19T00:31:21;44.87;;;32.23;;
11203;SDS011;5659;49.408;11.116;2023-10-19T00:33:47;43.53;;;32.47;;
11203;SDS011;5659;49.408;11.116;2023-10-19T00:36:16;43.60;;;32.57;;
11203;SDS011;5659;49.408;11.116;2023-10-19T00:38:45;42.67;;;33.70;;
11203;SDS011;5659;49.408;11.116;2023-10-19T00:41:14;44.53;;;33.43;;
11203;SDS011;5659;49.408;11.116;2023-10-19T00:43:46;44.07;;;33.27;;
11203;SDS011;5659;49.408;11.116;2023-10-19T00:46:17;40.83;;;31.47;;
11203;SDS011;5659;49.408;11.116;2023-10-19T00:48:48;47.40;;;33.97;;
11203;SDS011;5659;49.408;11.116;2023-10-19T00:51:14;41.03;;;32.67;;
11203;SDS011;5659;49.408;11.116;2023-10-19T00:54:18;44.83;;;34.03;;
11203;SDS011;5659;49.408;11.116;2023-10-19T00:56:51;48.53;;;34.83;;
11203;SDS011;5659;49.408;11.116;2023-10-19T00:59:23;43.83;;;32.10;;
11203;SDS011;5659;49.408;11.116;2023-10-19T01:01:50;51.27;;;34.63;;
11203;SDS011;5659;49.408;11.116;2023-10-19T01:04:19;49.37;;;34.30;;
11203;SDS011;5659;49.408;11.116;2023-10-19T01:06:50;48.70;;;33.97;;
11203;SDS011;5659;49.408;11.116;2023-10-19T01:09:25;44.17;;;33.33;;
11203;SDS011;5659;49.408;11.116;2023-10-19T01:11:52;46.07;;;33.40;;
11203;SDS011;5659;49.408;11.116;2023-10-19T01:14:22;43.77;;;34.20;;
11203;SDS011;5659;49.408;11.116;2023-10-19T01:16:52;45.83;;;34.33;;
11203;SDS011;5659;49.408;11.116;2023-10-19T01:19:21;48.93;;;34.37;;
11203;SDS011;5659;49.408;11.116;2023-10-19T01:21:48;52.60;;;34.00;;
11203;SDS011;5659;49.408;11.116;2023-10-19T01:24:20;45.00;;;33.47;;
11203;SDS011;5659;49.408;11.116;2023-10-19T01:27:05;47.43;;;34.70;;
11203;SDS011;5659;49.408;11.116;2023-10-19T01:29:34;47.47;;;35.97;;
11203;SDS011;5659;49.408;11.116;2023-10-19T01:32:00;45.13;;;34.60;;
11203;SDS011;5659;49.408;11.116;2023-10-19T01:34:33;54.87;;;35.43;;
11203;SDS011;5659;49.408;11.116;2023-10-19T01:36:59;46.93;;;34.63;;
11203;SDS011;5659;49.408;11.116;2023-10-19T01:39:32;46.50;;;33.63;;
11203;SDS011;5659;49.408;11.116;2023-10-19T01:42:00;55.10;;;35.50;;
11203;SDS011;5659;49.408;11.116;2023-10-19T01:44:26;51.43;;;34.33;;
11203;SDS011;5659;49.408;11.116;2023-10-19T01:46:52;48.37;;;36.20;;
11203;SDS011;5659;49.408;11.116;2023-10-19T01:49:18;46.90;;;34.93;;
11203;SDS011;5659;49.408;11.116;2023-10-19T01:51:54;51.77;;;35.37;;
11203;SDS011;5659;49.408;11.116;2023-10-19T01:54:20;52.73;;;35.27;;
11203;SDS011;5659;49.408;11.116;2023-10-19T01:56:50;51.80;;;36.60;;
11203;SDS011;5659;49.408;11.116;2023-10-19T01:59:16;51.97;;;36.83;;
11203;SDS011;5659;49.408;11.116;2023-10-19T02:01:42;47.53;;;36.53;;
11203;SDS011;5659;49.408;11.116;2023-10-19T02:04:10;53.83;;;37.77;;
11203;SDS011;5659;49.408;11.116;2023-10-19T02:06:38;53.63;;;37.47;;
11203;SDS011;5659;49.408;11.116;2023-10-19T02:09:09;48.10;;;36.00;;
11203;SDS011;5659;49.408;11.116;2023-10-19T02:11:42;48.63;;;37.43;;
11203;SDS011;5659;49.408;11.116;2023-10-19T02:14:11;53.83;;;36.90;;
11203;SDS011;5659;49.408;11.116;2023-10-19T02:16:47;52.70;;;38.00;;
11203;SDS011;5659;49.408;11.116;2023-10-19T02:19:16;51.43;;;37.30;;
11203;SDS011;5659;49.408;11.116;2023-10-19T02:21:42;54.20;;;36.83;;
11203;SDS011;5659;49.408;11.116;2023-10-19T02:24:12;50.80;;;37.67;;
11203;SDS011;5659;49.408;11.116;2023-10-19T02:26:39;49.37;;;38.60;;
11203;SDS011;5659;49.408;11.116;2023-10-19T02:29:05;47.63;;;35.97;;
11203;SDS011;5659;49.408;11.116;2023-10-19T02:31:38;49.97;;;38.33;;
11203;SDS011;5659;49.408;11.116;2023-10-19T02:34:05;52.10;;;36.80;;
11203;SDS011;5659;49.408;11.116;2023-10-19T02:36:32;51.97;;;36.87;;
11203;SDS011;5659;49.408;11.116;2023-10-19T02:39:00;48.07;;;37.73;;
11203;SDS011;5659;49.408;11.116;2023-10-19T02:41:32;51.03;;;35.57;;
11203;SDS011;5659;49.408;11.116;2023-10-19T02:44:00;49.63;;;36.63;;
11203;SDS011;5659;49.408;11.116;2023-10-19T02:46:31;52.43;;;36.83;;
11203;SDS011;5659;49.408;11.116;2023-10-19T02:49:00;53.87;;;35.80;;
11203;SDS011;5659;49.408;11.116;2023-10-19T02:51:26;51.20;;;37.67;;
11203;SDS011;5659;49.408;11.116;2023-10-19T02:53:51;54.37;;;36.80;;
11203;SDS011;5659;49.408;11.116;2023-10-19T02:56:18;49.87;;;36.23;;
11203;SDS011;5659;49.408;11.116;2023-10-19T02:58:45;49.37;;;36.00;;
11203;SDS011;5659;49.408;11.116;2023-10-19T03:01:18;51.77;;;37.20;;
11203;SDS011;5659;49.408;11.116;2023-10-19T03:03:50;49.43;;;36.17;;
11203;SDS011;5659;49.408;11.116;2023-10-19T03:06:19;53.30;;;36.27;;
11203;SDS011;5659;49.408;11.116;2023-10-19T03:08:45;49.70;;;36.10;;
11203;SDS011;5659;49.408;11.116;2023-10-19T03:11:12;48.93;;;36.17;;
11203;SDS011;5659;49.408;11.116;2023-10-19T03:13:39;49.73;;;36.80;;
11203;SDS011;5659;49.408;11.116;2023-10-19T03:16:06;53.03;;;36.83;;
11203;SDS011;5659;49.408;11.116;2023-10-19T03:18:35;55.17;;;37.77;;
11203;SDS011;5659;49.408;11.116;2023-10-19T03:21:04;52.57;;;37.63;;
11203;SDS011;5659;49.408;11.116;2023-10-19T03:23:30;58.87;;;37.80;;
11203;SDS011;5659;49.408;11.116;2023-10-19T03:25:59;47.63;;;35.60;;
11203;SDS011;5659;49.408;11.116;2023-10-19T03:28:44;48.77;;;37.53;;
11203;SDS011;5659;49.408;11.116;2023-10-19T03:31:11;55.77;;;37.83;;
11203;SDS011;5659;49.408;11.116;2023-10-19T03:33:46;51.87;;;37.93;;
11203;SDS011;5659;49.408;11.116;2023-10-19T03:36:19;60.00;;;37.60;;
11203;SDS011;5659;49.408;11.116;2023-10-19T03:38:45;52.03;;;37.47;;
11203;SDS011;5659;49.408;11.116;2023-10-19T03:41:11;52.43;;;38.77;;
11203;SDS011;5659;49.408;11.116;2023-10-19T03:43:37;51.67;;;37.23;;
11203;SDS011;5659;49.408;11.116;2023-10-19T03:46:06;49.77;;;37.23;;
11203;SDS011;5659;49.408;11.116;2023-10-19T03:48:53;53.03;;;39.00;;
11203;SDS011;5659;49.408;11.116;2023-10-19T03:51:23;45.63;;;35.00;;
11203;SDS011;5659;49.408;11.116;2023-10-19T03:53:51;53.37;;;37.03;;
11203;SDS011;5659;49.408;11.116;2023-10-19T03:56:23;49.90;;;36.70;;
11203;SDS011;5659;49.408;11.116;2023-10-19T03:58:49;52.53;;;37.80;;
11203;SDS011;5659;49.408;11.116;2023-10-19T04:01:16;52.10;;;36.27;;
11203;SDS011;5659;49.408;11.116;2023-10-19T04:03:44;47.80;;;36.93;;
11203;SDS011;5659;49.408;11.116;2023-10-19T04:06:10;48.47;;;35.90;;
11203;SDS011;5659;49.408;11.116;2023-10-19T04:08:40;50.67;;;37.03;;
11203;SDS011;5659;49.408;11.116;2023-10-19T04:11:06;48.87;;;36.40;;
11203;SDS011;5659;49.408;11.116;2023-10-19T04:13:37;52.53;;;35.93;;
11203;SDS011;5659;49.408;11.116;2023-10-19T04:16:03;47.77;;;35.47;;
11203;SDS011;5659;49.408;11.116;2023-10-19T04:18:39;54.37;;;36.37;;
11203;SDS011;5659;49.408;11.116;2023-10-19T04:21:05;53.33;;;36.07;;
11203;SDS011;5659;49.408;11.116;2023-10-19T04:23:31;48.53;;;36.07;;
11203;SDS011;5659;49.408;11.116;2023-10-19T04:26:00;47.23;;;35.60;;
11203;SDS011;5659;49.408;11.116;2023-10-19T04:28:30;44.90;;;35.27;;
11203;SDS011;5659;49.408;11.116;2023-10-19T04:31:02;45.43;;;35.00;;
11203;SDS011;5659;49.408;11.116;2023-10-19T04:33:31;46.50;;;34.63;;
11203;SDS011;5659;49.408;11.116;2023-10-19T04:35:57;48.83;;;36.13;;
11203;SDS011;5659;49.408;11.116;2023-10-19T04:38:25;47.00;;;35.53;;
11203;SDS011;5659;49.408;11.116;2023-10-19T04:40:51;48.30;;;34.97;;
11203;SDS011;5659;49.408;11.116;2023-10-19T04:43:17;51.00;;;35.93;;
11203;SDS011;5659;49.408;11.116;2023-10-19T04:45:43;46.23;;;34.93;;
11203;SDS011;5659;49.408;11.116;2023-10-19T04:48:09;44.13;;;34.87;;
11203;SDS011;5659;49.408;11.116;2023-10-19T04:50:36;49.27;;;37.20;;
11203;SDS011;5659;49.408;11.116;2023-10-19T04:53:02;49.80;;;36.77;;
11203;SDS011;5659;49.408;11.116;2023-10-19T04:55:31;50.23;;;35.83;;
11203;SDS011;5659;49.408;11.116;2023-10-19T04:57:57;51.63;;;37.47;;
11203;SDS011;5659;49.408;11.116;2023-10-19T05:00:23;52.27;;;38.20;;
11203;SDS011;5659;49.408;11.116;2023-10-19T05:02:49;52.07;;;36.73;;
11203;SDS011;5659;49.408;11.116;2023-10-19T05:05:17;49.77;;;37.23;;
11203;SDS011;5659;49.408;11.116;2023-10-19T05:07:43;48.43;;;36.73;;
11203;SDS011;5659;49.408;11.116;2023-10-19T05:10:09;51.27;;;38.17;;
11203;SDS011;5659;49.408;11.116;2023-10-19T05:12:36;50.83;;;37.93;;
11203;SDS011;5659;49.408;11.116;2023-10-19T05:15:02;56.50;;;38.90;;
11203;SDS011;5659;49.408;11.116;2023-10-19T05:17:30;50.13;;;36.50;;
11203;SDS011;5659;49.408;11.116;2023-10-19T05:19:56;48.83;;;37.83;;
11203;SDS011;5659;49.408;11.116;2023-10-19T05:22:23;51.93;;;38.77;;
11203;SDS011;5659;49.408;11.116;2023-10-19T05:24:54;53.97;;;39.67;;
11203;SDS011;5659;49.408;11.116;2023-10-19T05:27:20;54.83;;;41.40;;
11203;SDS011;5659;49.408;11.116;2023-10-19T05:29:47;65.03;;;41.53;;
11203;SDS011;5659;49.408;11.116;2023-10-19T05:32:13;56.27;;;40.10;;
11203;SDS011;5659;49.408;11.116;2023-10-19T05:34:39;56.10;;;40.40;;
11203;SDS011;5659;49.408;11.116;2023-10-19T05:37:05;58.47;;;41.13;;
11203;SDS011;5659;49.408;11.116;2023-10-19T05:39:31;55.13;;;40.00;;
11203;SDS011;5659;49.408;11.116;2023-10-19T05:41:58;57.27;;;39.60;;
11203;SDS011;5659;49.408;11.116;2023-10-19T05:44:25;54.60;;;41.20;;
11203;SDS011;5659;49.408;11.116;2023-10-19T05:46:51;55.63;;;41.07;;
11203;SDS011;5659;49.408;11.116;2023-10-19T05:49:19;61.10;;;40.33;;
11203;SDS011;5659;49.408;11.116;2023-10-19T05:51:45;60.80;;;40.47;;
11203;SDS011;5659;49.408;11.116;2023-10-19T05:54:11;56.70;;;39.40;;
11203;SDS011;5659;49.408;11.116;2023-10-19T05:56:37;49.80;;;37.93;;
11203;SDS011;5659;49.408;11.116;2023-10-19T05:59:03;56.50;;;39.07;;
11203;SDS011;5659;49.408;11.116;2023-10-19T06:01:31;54.37;;;38.47;;
11203;SDS011;5659;49.408;11.116;2023-10-19T06:03:57;55.30;;;39.53;;
11203;SDS011;5659;49.408;11.116;2023-10-19T06:06:23;54.37;;;39.40;;
11203;SDS011;5659;49.408;11.116;2023-10-19T06:08:49;52.30;;;38.33;;
11203;SDS011;5659;49.408;11.116;2023-10-19T06:11:18;51.13;;;38.53;;
11203;SDS011;5659;49.408;11.116;2023-10-19T06:13:44;52.63;;;38.77;;
11203;SDS011;5659;49.408;11.116;2023-10-19T06:16:11;53.70;;;38.67;;
11203;SDS011;5659;49.408;11.116;2023-10-19T06:18:37;52.00;;;38.70;;
11203;SDS011;5659;49.408;11.116;2023-10-19T06:21:03;58.20;;;40.43;;
11203;SDS011;5659;49.408;11.116;2023-10-19T06:23:29;58.20;;;40.87;;
11203;SDS011;5659;49.408;11.116;2023-10-19T06:25:56;57.13;;;40.90;;
11203;SDS011;5659;49.408;11.116;2023-10-19T06:28:22;55.37;;;39.10;;
11203;SDS011;5659;49.408;11.116;2023-10-19T06:30:48;54.20;;;40.00;;
11203;SDS011;5659;49.408;11.116;2023-10-19T06:33:15;52.27;;;39.57;;
11203;SDS011;5659;49.408;11.116;2023-10-19T06:35:42;59.43;;;40.10;;
11203;SDS011;5659;49.408;11.116;2023-10-19T06:38:07;54.27;;;39.03;;
11203;SDS011;5659;49.408;11.116;2023-10-19T06:40:34;51.43;;;38.70;;
11203;SDS011;5659;49.408;11.116;2023-10-19T06:43:03;51.13;;;39.00;;
11203;SDS011;5659;49.408;11.116;2023-10-19T06:45:30;52.47;;;38.87;;
11203;SDS011;5659;49.408;11.116;2023-10-19T06:47:56;50.97;;;37.63;;
11203;SDS011;5659;49.408;11.116;2023-10-19T06:50:23;54.23;;;39.13;;
11203;SDS011;5659;49.408;11.116;2023-10-19T06:52:50;51.17;;;38.33;;
11203;SDS011;5659;49.408;11.116;2023-10-19T06:55:17;55.47;;;41.40;;
11203;SDS011;5659;49.408;11.116;2023-10-19T06:57:48;53.10;;;40.57;;
11203;SDS011;5659;49.408;11.116;2023-10-19T07:00:15;58.03;;;41.43;;
11203;SDS011;5659;49.408;11.116;2023-10-19T07:02:44;55.37;;;40.20;;
11203;SDS011;5659;49.408;11.116;2023-10-19T07:05:11;58.10;;;40.07;;
11203;SDS011;5659;49.408;11.116;2023-10-19T07:07:40;63.93;;;41.40;;
11203;SDS011;5659;49.408;11.116;2023-10-19T07:10:07;56.47;;;40.90;;
11203;SDS011;5659;49.408;11.116;2023-10-19T07:12:34;56.33;;;40.50;;
11203;SDS011;5659;49.408;11.116;2023-10-19T07:15:00;59.40;;;39.13;;
11203;SDS011;5659;49.408;11.116;2023-10-19T07:17:26;53.90;;;40.20;;
11203;SDS011;5659;49.408;11.116;2023-10-19T07:19:52;52.03;;;40.10;;
11203;SDS011;5659;49.408;11.116;2023-10-19T07:22:18;49.50;;;38.37;;
11203;SDS011;5659;49.408;11.116;2023-10-19T07:24:48;52.67;;;38.57;;
11203;SDS011;5659;49.408;11.116;2023-10-19T07:27:13;51.43;;;39.40;;
11203;SDS011;5659;49.408;11.116;2023-10-19T07:29:43;47.77;;;37.03;;
11203;SDS011;5659;49.408;11.116;2023-10-19T07:32:09;46.37;;;36.57;;
11203;SDS011;5659;49.408;11.116;2023-10-19T07:34:39;50.27;;;38.20;;
11203;SDS011;5659;49.408;11.116;2023-10-19T07:37:05;44.28;;;34.88;;
11203;SDS011;5659;49.408;11.116;2023-10-19T07:39:32;43.53;;;34.47;;
11203;SDS011;5659;49.408;11.116;2023-10-19T07:42:00;46.45;;;33.58;;
11203;SDS011;5659;49.408;11.116;2023-10-19T07:44:26;44.78;;;33.33;;
11203;SDS011;5659;49.408;11.116;2023-10-19T07:46:55;39.77;;;32.27;;
11203;SDS011;5659;49.408;11.116;2023-10-19T07:49:21;41.30;;;32.67;;
11203;SDS011;5659;49.408;11.116;2023-10-19T07:51:47;39.85;;;30.80;;
11203;SDS011;5659;49.408;11.116;2023-10-19T07:54:14;39.58;;;29.63;;
11203;SDS011;5659;49.408;11.116;2023-10-19T07:56:40;34.22;;;27.73;;
11203;SDS011;5659;49.408;11.116;2023-10-19T07:59:07;32.25;;;26.73;;
11203;SDS011;5659;49.408;11.116;2023-10-19T08:01:33;29.92;;;26.35;;
11203;SDS011;5659;49.408;11.116;2023-10-19T08:03:59;29.70;;;25.48;;
11203;SDS011;5659;49.408;11.116;2023-10-19T08:06:25;29.70;;;24.98;;
11203;SDS011;5659;49.408;11.116;2023-10-19T08:08:51;28.23;;;23.85;;
11203;SDS011;5659;49.408;11.116;2023-10-19T08:11:18;27.10;;;23.10;;
11203;SDS011;5659;49.408;11.116;2023-10-19T08:13:44;29.02;;;24.95;;
11203;SDS011;5659;49.408;11.116;2023-10-19T08:16:10;28.23;;;24.73;;
11203;SDS011;5659;49.408;11.116;2023-10-19T08:18:37;26.15;;;22.65;;
11203;SDS011;5659;49.408;11.116;2023-10-19T08:21:04;25.02;;;22.30;;
11203;SDS011;5659;49.408;11.116;2023-10-19T08:23:30;27.38;;;21.92;;
11203;SDS011;5659;49.408;11.116;2023-10-19T08:25:56;26.27;;;21.35;;
11203;SDS011;5659;49.408;11.116;2023-10-19T08:28:23;25.13;;;21.13;;
11203;SDS011;5659;49.408;11.116;2023-10-19T08:30:49;28.52;;;21.45;;
11203;SDS011;5659;49.408;11.116;2023-10-19T08:33:27;26.20;;;21.60;;
11203;SDS011;5659;49.408;11.116;2023-10-19T08:35:54;23.38;;;20.88;;
11203;SDS011;5659;49.408;11.116;2023-10-19T08:38:21;27.35;;;21.38;;
11203;SDS011;5659;49.408;11.116;2023-10-19T08:40:48;24.63;;;21.00;;
11203;SDS011;5659;49.408;11.116;2023-10-19T08:43:15;26.30;;;21.15;;
11203;SDS011;5659;49.408;11.116;2023-10-19T08:45:43;27.95;;;20.08;;
11203;SDS011;5659;49.408;11.116;2023-10-19T08:48:09;24.13;;;19.55;;
11203;SDS011;5659;49.408;11.116;2023-10-19T08:50:36;28.40;;;20.05;;
11203;SDS011;5659;49.408;11.116;2023-10-19T08:53:06;21.88;;;19.58;;
11203;SDS011;5659;49.408;11.116;2023-10-19T08:55:38;23.95;;;19.83;;
11203;SDS011;5659;49.408;11.116;2023-10-19T08:58:04;24.45;;;19.20;;
11203;SDS011;5659;49.408;11.116;2023-10-19T09:00:42;22.85;;;19.58;;
11203;SDS011;5659;49.408;11.116;2023-10-19T09:03:09;22.55;;;19.00;;
11203;SDS011;5659;49.408;11.116;2023-10-19T09:05:38;27.42;;;20.35;;
11203;SDS011;5659;49.408;11.116;2023-10-19T09:08:05;20.40;;;18.23;;
11203;SDS011;5659;49.408;11.116;2023-10-19T09:10:31;23.67;;;19.60;;
11203;SDS011;5659;49.408;11.116;2023-10-19T09:13:02;22.15;;;18.35;;
11203;SDS011;5659;49.408;11.116;2023-10-19T09:15:28;21.25;;;17.52;;
11203;SDS011;5659;49.408;11.116;2023-10-19T09:17:57;22.55;;;19.27;;
11203;SDS011;5659;49.408;11.116;2023-10-19T09:20:24;21.63;;;18.52;;
11203;SDS011;5659;49.408;11.116;2023-10-19T09:22:55;23.98;;;18.75;;
11203;SDS011;5659;49.408;11.116;2023-10-19T09:25:23;23.33;;;18.35;;
11203;SDS011;5659;49.408;11.116;2023-10-19T09:27:49;20.40;;;18.05;;
11203;SDS011;5659;49.408;11.116;2023-10-19T09:30:16;21.05;;;17.23;;
11203;SDS011;5659;49.408;11.116;2023-10-19T09:32:44;20.20;;;17.42;;
11203;SDS011;5659;49.408;11.116;2023-10-19T09:35:11;21.95;;;18.20;;
11203;SDS011;5659;49.408;11.116;2023-10-19T09:37:40;21.08;;;18.40;;
11203;SDS011;5659;49.408;11.116;2023-10-19T09:40:07;22.65;;;17.77;;
11203;SDS011;5659;49.408;11.116;2023-10-19T09:42:38;23.25;;;17.83;;
11203;SDS011;5659;49.408;11.116;2023-10-19T09:45:07;23.08;;;17.45;;
11203;SDS011;5659;49.408;11.116;2023-10-19T09:47:38;18.98;;;16.98;;
11203;SDS011;5659;49.408;11.116;2023-10-19T09:50:05;20.30;;;17.45;;
11203;SDS011;5659;49.408;11.116;2023-10-19T09:52:32;20.50;;;17.20;;
11203;SDS011;5659;49.408;11.116;2023-10-19T10:00:17;21.02;;;17.20;;
11203;SDS011;5659;49.408;11.116;2023-10-19T10:02:48;20.77;;;16.85;;
11203;SDS011;5659;49.408;11.116;2023-10-19T10:10:47;21.30;;;15.75;;
11203;SDS011;5659;49.408;11.116;2023-10-19T10:13:56;19.48;;;15.43;;
11203;SDS011;5659;49.408;11.116;2023-10-19T10:16:02;19.50;;;16.52;;
11203;SDS011;5659;49.408;11.116;2023-10-19T10:18:32;23.42;;;16.45;;
11203;SDS011;5659;49.408;11.116;2023-10-19T10:21:21;20.00;;;16.27;;
11203;SDS011;5659;49.408;11.116;2023-10-19T10:23:50;19.40;;;15.65;;
11203;SDS011;5659;49.408;11.116;2023-10-19T10:26:18;20.05;;;16.00;;
11203;SDS011;5659;49.408;11.116;2023-10-19T10:28:48;21.42;;;16.10;;
11203;SDS011;5659;49.408;11.116;2023-10-19T10:31:18;17.42;;;14.65;;
11203;SDS011;5659;49.408;11.116;2023-10-19T10:33:49;18.27;;;14.95;;
11203;SDS011;5659;49.408;11.116;2023-10-19T10:36:17;18.58;;;14.90;;
11203;SDS011;5659;49.408;11.116;2023-10-19T10:38:48;17.05;;;14.88;;
11203;SDS011;5659;49.408;11.116;2023-10-19T10:41:21;19.23;;;15.20;;
11203;SDS011;5659;49.408;11.116;2023-10-19T10:43:48;22.02;;;15.15;;
11203;SDS011;5659;49.408;11.116;2023-10-19T10:46:14;19.42;;;14.07;;
11203;SDS011;5659;49.408;11.116;2023-10-19T10:48:41;15.95;;;14.10;;
11203;SDS011;5659;49.408;11.116;2023-10-19T10:51:14;17.20;;;14.13;;
11203;SDS011;5659;49.408;11.116;2023-10-19T10:53:40;17.52;;;13.82;;
11203;SDS011;5659;49.408;11.116;2023-10-19T10:56:06;16.63;;;13.48;;
11203;SDS011;5659;49.408;11.116;2023-10-19T10:58:32;19.05;;;13.20;;
11203;SDS011;5659;49.408;11.116;2023-10-19T11:00:58;14.98;;;12.30;;
11203;SDS011;5659;49.408;11.116;2023-10-19T11:03:25;17.02;;;12.23;;
11203;SDS011;5659;49.408;11.116;2023-10-19T11:05:55;14.35;;;12.25;;
11203;SDS011;5659;49.408;11.116;2023-10-19T11:08:23;14.48;;;12.48;;
11203;SDS011;5659;49.408;11.116;2023-10-19T11:10:49;18.65;;;12.52;;
11203;SDS011;5659;49.408;11.116;2023-10-19T11:13:16;13.73;;;12.18;;
11203;SDS011;5659;49.408;11.116;2023-10-19T11:15:49;12.35;;;11.05;;
11203;SDS011;5659;49.408;11.116;2023-10-19T11:18:32;13.75;;;10.77;;
11203;SDS011;5659;49.408;11.116;2023-10-19T11:20:58;13.15;;;10.40;;
11203;SDS011;5659;49.408;11.116;2023-10-19T11:26:01;12.77;;;10.05;;
11203;SDS011;5659;49.408;11.116;2023-10-19T11:28:33;11.95;;;10.20;;
11203;SDS011;5659;49.408;11.116;2023-10-19T11:31:13;14.07;;;9.15;;
11203;SDS011;5659;49.408;11.116;2023-10-19T11:33:40;12.57;;;9.32;;
11203;SDS011;5659;49.408;11.116;2023-10-19T11:36:07;15.02;;;9.10;;
11203;SDS011;5659;49.408;11.116;2023-10-19T11:38:33;10.23;;;8.75;;
11203;SDS011;5659;49.408;11.116;2023-10-19T11:41:00;11.55;;;8.40;;
11203;SDS011;5659;49.408;11.116;2023-10-19T11:43:28;10.77;;;8.90;;
11203;SDS011;5659;49.408;11.116;2023-10-19T11:45:54;14.07;;;8.50;;
11203;SDS011;5659;49.408;11.116;2023-10-19T11:48:20;10.82;;;8.32;;
11203;SDS011;5659;49.408;11.116;2023-10-19T11:50:47;8.98;;;7.70;;
11203;SDS011;5659;49.408;11.116;2023-10-19T11:53:13;15.57;;;9.25;;
11203;SDS011;5659;49.408;11.116;2023-10-19T11:55:39;13.52;;;9.45;;
11203;SDS011;5659;49.408;11.116;2023-10-19T11:58:07;14.00;;;9.18;;
11203;SDS011;5659;49.408;11.116;2023-10-19T12:00:36;12.23;;;9.15;;
11203;SDS011;5659;49.408;11.116;2023-10-19T12:03:03;10.82;;;9.63;;
11203;SDS011;5659;49.408;11.116;2023-10-19T12:05:29;10.35;;;9.10;;
11203;SDS011;5659;49.408;11.116;2023-10-19T12:07:55;13.93;;;9.82;;
11203;SDS011;5659;49.408;11.116;2023-10-19T12:10:21;13.60;;;9.75;;
11203;SDS011;5659;49.408;11.116;2023-10-19T12:13:06;14.23;;;10.18;;
11203;SDS011;5659;49.408;11.116;2023-10-19T12:15:33;13.35;;;10.20;;
11203;SDS011;5659;49.408;11.116;2023-10-19T12:17:59;11.13;;;10.02;;
11203;SDS011;5659;49.408;11.116;2023-10-19T12:20:25;13.82;;;10.35;;
11203;SDS011;5659;49.408;11.116;2023-10-19T12:22:51;12.68;;;10.52;;
11203;SDS011;5659;49.408;11.116;2023-10-19T12:25:19;11.93;;;9.90;;
11203;SDS011;5659;49.408;11.116;2023-10-19T12:27:46;14.18;;;10.60;;
11203;SDS011;5659;49.408;11.116;2023-10-19T12:30:12;11.32;;;10.07;;
11203;SDS011;5659;49.408;11.116;2023-10-19T12:32:44;11.93;;;9.48;;
11203;SDS011;5659;49.408;11.116;2023-10-19T12:35:10;13.63;;;10.30;;
11203;SDS011;5659;49.408;11.116;2023-10-19T12:37:37;12.65;;;9.55;;
11203;SDS011;5659;49.408;11.116;2023-10-19T12:40:14;11.05;;;9.85;;
11203;SDS011;5659;49.408;11.116;2023-10-19T12:42:53;14.05;;;9.57;;
11203;SDS011;5659;49.408;11.116;2023-10-19T12:45:20;11.80;;;10.07;;
11203;SDS011;5659;49.408;11.116;2023-10-19T12:47:46;10.93;;;9.43;;
11203;SDS011;5659;49.408;11.116;2023-10-19T12:50:13;10.45;;;9.43;;
11203;SDS011;5659;49.408;11.116;2023-10-19T12:52:39;12.23;;;9.07;;
11203;SDS011;5659;49.408;11.116;2023-10-19T12:55:06;11.77;;;9.23;;
11203;SDS011;5659;49.408;11.116;2023-10-19T12:57:32;14.05;;;9.20;;
11203;SDS011;5659;49.408;11.116;2023-10-19T12:59:58;17.02;;;8.93;;
11203;SDS011;5659;49.408;11.116;2023-10-19T13:02:47;11.55;;;9.20;;
11203;SDS011;5659;49.408;11.116;2023-10-19T13:05:13;11.00;;;8.82;;
11203;SDS011;5659;49.408;11.116;2023-10-19T13:07:43;10.13;;;8.77;;
11203;SDS011;5659;49.408;11.116;2023-10-19T13:10:09;12.65;;;9.25;;
11203;SDS011;5659;49.408;11.116;2023-10-19T13:12:36;9.70;;;8.32;;
11203;SDS011;5659;49.408;11.116;2023-10-19T13:15:02;12.75;;;8.25;;
11203;SDS011;5659;49.408;11.116;2023-10-19T13:17:28;11.55;;;8.80;;
11203;SDS011;5659;49.408;11.116;2023-10-19T13:19:55;11.10;;;8.82;;
11203;SDS011;5659;49.408;11.116;2023-10-19T13:22:23;11.15;;;8.70;;
11203;SDS011;5659;49.408;11.116;2023-10-19T13:24:50;10.18;;;9.10;;
11203;SDS011;5659;49.408;11.116;2023-10-19T13:27:16;11.00;;;9.20;;
11203;SDS011;5659;49.408;11.116;2023-10-19T13:29:42;14.25;;;10.18;;
11203;SDS011;5659;49.408;11.116;2023-10-19T13:32:08;10.50;;;9.40;;
11203;SDS011;5659;49.408;11.116;2023-10-19T13:34:35;15.27;;;9.15;;
11203;SDS011;5659;49.408;11.116;2023-10-19T13:37:03;11.13;;;9.77;;
11203;SDS011;5659;49.408;11.116;2023-10-19T13:39:33;12.10;;;9.48;;
11203;SDS011;5659;49.408;11.116;2023-10-19T13:41:59;11.20;;;10.10;;
11203;SDS011;5659;49.408;11.116;2023-10-19T13:44:25;13.55;;;10.43;;
11203;SDS011;5659;49.408;11.116;2023-10-19T13:46:51;11.68;;;10.13;;
11203;SDS011;5659;49.408;11.116;2023-10-19T13:49:19;15.30;;;10.85;;
11203;SDS011;5659;49.408;11.116;2023-10-19T13:51:47;12.18;;;10.65;;
11203;SDS011;5659;49.408;11.116;2023-10-19T13:54:13;13.18;;;10.85;;
11203;SDS011;5659;49.408;11.116;2023-10-19T13:56:39;14.23;;;11.52;;
11203;SDS011;5659;49.408;11.116;2023-10-19T13:59:05;15.18;;;11.50;;
11203;SDS011;5659;49.408;11.116;2023-10-19T14:01:31;17.40;;;11.85;;
11203;SDS011;5659;49.408;11.116;2023-10-19T14:03:57;14.93;;;12.20;;
11203;SDS011;5659;49.408;11.116;2023-10-19T14:06:23;15.43;;;12.77;;
11203;SDS011;5659;49.408;11.116;2023-10-19T14:08:51;13.82;;;11.88;;
11203;SDS011;5659;49.408;11.116;2023-10-19T14:11:17;15.82;;;12.70;;
11203;SDS011;5659;49.408;11.116;2023-10-19T14:13:43;17.80;;;12.73;;
11203;SDS011;5659;49.408;11.116;2023-10-19T14:16:10;14.60;;;12.32;;
11203;SDS011;5659;49.408;11.116;2023-10-19T14:18:36;15.48;;;12.93;;
11203;SDS011;5659;49.408;11.116;2023-10-19T14:21:11;16.42;;;12.18;;
11203;SDS011;5659;49.408;11.116;2023-10-19T14:23:38;13.40;;;11.80;;
11203;SDS011;5659;49.408;11.116;2023-10-19T14:26:05;14.27;;;11.63;;
11203;SDS011;5659;49.408;11.116;2023-10-19T14:28:31;16.02;;;11.82;;
11203;SDS011;5659;49.408;11.116;2023-10-19T14:31:00;15.23;;;11.77;;
11203;SDS011;5659;49.408;11.116;2023-10-19T14:33:26;16.92;;;11.98;;
11203;SDS011;5659;49.408;11.116;2023-10-19T14:35:52;14.20;;;12.65;;
11203;SDS011;5659;49.408;11.116;2023-10-19T14:38:18;14.98;;;12.80;;
11203;SDS011;5659;49.408;11.116;2023-10-19T14:40:44;18.80;;;12.50;;
11203;SDS011;5659;49.408;11.116;2023-10-19T14:43:13;16.63;;;12.80;;